Time;durP1;ratioP1;P1;durP2;ratioP2;P2;SDS_P1;SDS_P2;PMS_P1;PMS_P2;Temp;Humidity;BMP_temperature;BMP_pressure;BME280_temperature;BME280_humidity;BME280_pressure;Samples;Min_cycle;Max_cycle;Signal;HPM_P1;HPM_P2
2023/10/21 00:00:51;;;;;;;0.10;0.10;;;;;;;3.08;88.99;99522.06;5044024;28;20491;-71
2023/10/21 00:03:19;;;;;;;0.10;0.10;;;;;;;3.04;89.11;99511.94;5063550;28;20044;-71
2023/10/21 00:05:45;;;;;;;0.10;0.10;;;;;;;3.08;89.23;99516.66;5066401;28;20064;-72
2023/10/21 00:08:11;;;;;;;0.00;0.00;;;;;;;3.13;89.04;99524.06;5068026;28;20072;-71
2023/10/21 00:10:37;;;;;;;0.10;0.10;;;;;;;3.16;88.79;99525.47;5067672;28;20048;-71
2023/10/21 00:13:03;;;;;;;0.10;0.10;;;;;;;3.12;88.72;99527.81;5060082;28;20479;-70
2023/10/21 00:15:29;;;;;;;0.10;0.10;;;;;;;3.06;89.09;99531.44;5058381;28;20048;-71
2023/10/21 00:17:55;;;;;;;0.10;0.10;;;;;;;3.15;89.02;99529.22;5056311;28;20044;-71
2023/10/21 00:20:23;;;;;;;0.10;0.10;;;;;;;3.15;88.22;99530.06;5065665;28;20515;-71
2023/10/21 00:22:49;;;;;;;0.10;0.10;;;;;;;3.00;88.21;99549.41;5031798;28;20048;-65
2023/10/21 00:25:15;;;;;;;0.10;0.10;;;;;;;2.91;88.79;99551.59;5043015;28;20048;-65
2023/10/21 00:27:41;;;;;;;0.10;0.10;;;;;;;2.57;89.44;99505.38;5046156;28;20070;-65
2023/10/21 00:30:08;;;;;;;0.10;0.10;;;;;;;2.91;89.39;99553.50;5066528;28;20071;-65
2023/10/21 00:32:34;;;;;;;0.10;0.10;;;;;;;2.79;89.29;99561.53;5044305;28;20051;-65
2023/10/21 00:35:01;;;;;;;0.10;0.10;;;;;;;2.76;89.33;99564.72;5041441;28;20050;-65
2023/10/21 00:37:28;;;;;;;0.10;0.10;;;;;;;2.74;89.47;99564.13;5025362;28;20045;-64
2023/10/21 00:39:54;;;;;;;0.00;0.00;;;;;;;2.78;89.79;99568.00;5029180;28;20041;-64
2023/10/21 00:42:21;;;;;;;0.05;0.05;;;;;;;2.82;89.60;99570.00;5045150;28;20044;-65
2023/10/21 00:44:47;;;;;;;0.10;0.10;;;;;;;2.88;90.06;99560.19;5060252;28;20461;-64
2023/10/21 00:47:13;;;;;;;0.00;0.00;;;;;;;2.99;90.23;99572.06;5055212;28;20382;-64
2023/10/21 00:49:39;;;;;;;0.10;0.10;;;;;;;3.07;90.03;99562.81;5044655;28;20067;-65
2023/10/21 00:52:06;;;;;;;0.10;0.10;;;;;;;3.08;89.49;99569.84;5066735;28;20135;-65
2023/10/21 00:54:34;;;;;;;0.10;0.10;;;;;;;3.10;89.01;99570.44;5046899;28;20076;-65
2023/10/21 00:57:00;;;;;;;0.10;0.10;;;;;;;3.12;89.32;99574.56;5047099;28;20135;-65
2023/10/21 00:59:26;;;;;;;0.10;0.10;;;;;;;3.11;89.35;99567.53;5062545;28;20044;-72
2023/10/21 01:01:53;;;;;;;0.00;0.00;;;;;;;3.20;89.25;99575.28;5026459;28;20041;-70
2023/10/21 01:04:21;;;;;;;0.00;0.00;;;;;;;3.24;88.94;99576.50;5051037;28;20094;-71
2023/10/21 01:06:48;;;;;;;0.10;0.10;;;;;;;3.21;88.28;99575.06;5061020;28;20094;-70
2023/10/21 01:09:18;;;;;;;0.10;0.10;;;;;;;3.17;88.38;99568.47;5046107;28;20051;-71
2023/10/21 01:11:46;;;;;;;0.10;0.10;;;;;;;3.09;88.15;99572.34;5065139;28;20044;-70
2023/10/21 01:14:12;;;;;;;0.10;0.10;;;;;;;3.04;88.22;99580.28;5038274;28;20044;-70
2023/10/21 01:16:38;;;;;;;0.10;0.10;;;;;;;3.06;87.90;99588.19;5059735;28;20041;-70
2023/10/21 01:19:06;;;;;;;0.10;0.10;;;;;;;2.97;88.08;99580.41;5061977;28;20102;-70
2023/10/21 01:21:32;;;;;;;0.10;0.10;;;;;;;2.97;88.38;99579.59;5058231;28;20044;-65
2023/10/21 01:24:00;;;;;;;0.10;0.10;;;;;;;2.99;88.42;99572.06;5058210;28;20048;-71
2023/10/21 01:26:26;;;;;;;0.10;0.10;;;;;;;2.99;88.36;99580.16;5038305;28;20044;-64
2023/10/21 01:28:53;;;;;;;0.10;0.10;;;;;;;2.96;88.48;99592.25;5025936;28;20507;-71
2023/10/21 01:31:19;;;;;;;0.10;0.10;;;;;;;2.94;88.89;99596.25;5058720;28;20048;-71
2023/10/21 01:33:45;;;;;;;0.10;0.10;;;;;;;2.94;89.33;99596.25;5027444;28;20055;-71
2023/10/21 01:36:12;;;;;;;0.10;0.10;;;;;;;2.97;88.88;99591.22;5062719;28;20098;-71
2023/10/21 01:38:39;;;;;;;0.10;0.10;;;;;;;3.00;88.97;99597.22;5061708;28;20048;-70
2023/10/21 01:41:08;;;;;;;0.10;0.10;;;;;;;3.08;88.31;99599.56;5042052;28;20040;-71
2023/10/21 01:43:34;;;;;;;0.10;0.10;;;;;;;3.08;88.11;99599.56;5045957;28;20052;-71
2023/10/21 01:46:05;;;;;;;0.10;0.10;;;;;;;3.07;88.07;99597.94;5037680;28;20055;-70
2023/10/21 01:48:31;;;;;;;0.10;0.10;;;;;;;3.01;87.96;99610.47;5028539;28;20443;-71
2023/10/21 01:51:04;;;;;;;0.00;0.00;;;;;;;2.95;88.24;99600.59;5041430;28;20082;-71
2023/10/21 01:53:31;;;;;;;0.10;0.10;;;;;;;2.97;88.72;99610.13;5062158;28;20510;-70
2023/10/21 01:56:01;;;;;;;0.10;0.10;;;;;;;2.97;88.71;99601.19;5057710;28;20139;-65
2023/10/21 01:58:28;;;;;;;0.00;0.00;;;;;;;2.95;88.65;99611.41;5043889;28;20072;-65
2023/10/21 02:00:55;;;;;;;0.10;0.10;;;;;;;2.96;88.54;99619.25;5056454;28;20066;-65
2023/10/21 02:03:21;;;;;;;0.00;0.00;;;;;;;2.92;88.55;99612.69;5047607;28;20053;-65
2023/10/21 02:05:48;;;;;;;0.10;0.10;;;;;;;2.90;88.64;99622.09;5048122;28;20560;-65
2023/10/21 02:08:14;;;;;;;0.10;0.10;;;;;;;2.87;89.02;99615.25;5057287;28;20044;-66
2023/10/21 02:10:41;;;;;;;0.10;0.10;;;;;;;2.90;88.93;99612.09;5060981;28;20056;-71
2023/10/21 02:13:07;;;;;;;0.10;0.10;;;;;;;2.93;88.80;99618.91;5042749;28;20078;-71
2023/10/21 02:15:36;;;;;;;0.10;0.10;;;;;;;2.93;88.42;99622.44;5013977;28;20071;-71
2023/10/21 02:18:04;;;;;;;0.10;0.10;;;;;;;2.90;88.22;99622.88;5062711;28;20063;-71
2023/10/21 02:20:31;;;;;;;0.10;0.10;;;;;;;2.88;88.39;99626.84;5040256;28;20048;-71
2023/10/21 02:22:57;;;;;;;0.10;0.10;;;;;;;2.87;88.51;99623.34;5059026;28;20056;-65
2023/10/21 02:25:23;;;;;;;0.10;0.10;;;;;;;2.83;88.62;99622.16;5062512;28;20044;-65
2023/10/21 02:27:51;;;;;;;0.10;0.10;;;;;;;2.81;88.19;99637.75;5038780;28;20051;-65
2023/10/21 02:30:18;;;;;;;0.10;0.10;;;;;;;2.72;88.54;99636.44;5059416;28;20044;-65
2023/10/21 02:32:47;;;;;;;0.10;0.10;;;;;;;2.78;88.68;99640.91;5045999;28;20131;-65
2023/10/21 02:35:14;;;;;;;0.10;0.10;;;;;;;2.80;88.25;99646.91;5051164;28;20113;-65
2023/10/21 02:37:41;;;;;;;0.03;0.03;;;;;;;2.69;87.97;99643.94;5059099;28;20481;-71
2023/10/21 02:40:09;;;;;;;0.10;0.10;;;;;;;2.72;87.99;99658.84;5050701;28;20083;-70
2023/10/21 02:42:35;;;;;;;0.10;0.10;;;;;;;2.71;88.50;99654.50;5024904;28;20041;-64
2023/10/21 02:45:02;;;;;;;0.00;0.00;;;;;;;2.76;88.46;99659.22;5010203;28;20052;-65
2023/10/21 02:47:32;;;;;;;0.10;0.10;;;;;;;2.72;88.70;99660.72;5052578;28;20045;-65
2023/10/21 02:50:00;;;;;;;0.10;0.10;;;;;;;2.72;88.11;99660.72;5061721;28;20535;-70
2023/10/21 02:52:26;;;;;;;0.10;0.10;;;;;;;2.64;88.29;99673.47;5039175;28;20068;-71
2023/10/21 02:54:53;;;;;;;0.10;0.10;;;;;;;2.64;88.09;99670.75;5026948;28;20060;-71
2023/10/21 02:57:19;;;;;;;0.10;0.10;;;;;;;2.63;87.86;99676.41;5058902;28;20059;-70
2023/10/21 02:59:46;;;;;;;0.10;0.10;;;;;;;2.68;88.17;99671.16;5045987;28;20051;-70
2023/10/21 03:02:15;;;;;;;0.10;0.10;;;;;;;2.70;88.02;99674.44;5043330;28;20477;-71
2023/10/21 03:04:42;;;;;;;0.10;0.10;;;;;;;2.72;87.67;99683.13;5025427;28;20056;-70
2023/10/21 03:07:10;;;;;;;0.00;0.00;;;;;;;2.61;87.65;99678.50;5057563;28;20056;-65
2023/10/21 03:09:36;;;;;;;0.10;0.10;;;;;;;2.64;88.06;99680.75;5025314;28;20051;-64
2023/10/21 03:12:03;;;;;;;0.10;0.10;;;;;;;2.71;87.80;99680.69;5015400;28;20056;-71
2023/10/21 03:14:29;;;;;;;0.10;0.10;;;;;;;2.50;88.05;99639.59;5029473;28;20072;-70
2023/10/21 03:16:55;;;;;;;0.10;0.10;;;;;;;2.83;88.35;99677.00;5055455;28;20670;-71
2023/10/21 03:19:21;;;;;;;0.10;0.10;;;;;;;2.90;88.35;99685.00;5059089;28;20102;-64
2023/10/21 03:21:47;;;;;;;0.10;0.10;;;;;;;2.93;88.32;99687.25;5058092;28;20044;-65
2023/10/21 03:24:15;;;;;;;0.10;0.10;;;;;;;2.96;87.46;99689.50;5022296;28;20056;-65
2023/10/21 03:26:41;;;;;;;0.10;0.10;;;;;;;2.96;87.15;99691.38;5053587;28;20106;-65
2023/10/21 03:29:08;;;;;;;0.10;0.10;;;;;;;2.98;86.82;99694.69;5051053;28;20401;-64
2023/10/21 03:31:34;;;;;;;0.10;0.10;;;;;;;2.94;86.71;99702.41;5061600;28;20044;-65
2023/10/21 03:34:00;;;;;;;0.00;0.00;;;;;;;2.94;86.70;99697.00;5048934;28;20048;-65
2023/10/21 03:36:26;;;;;;;0.10;0.10;;;;;;;2.92;86.76;99706.41;5035826;28;20053;-71
2023/10/21 03:38:52;;;;;;;0.10;0.10;;;;;;;2.93;86.74;99708.84;5032682;28;20046;-71
2023/10/21 03:41:20;;;;;;;0.10;0.10;;;;;;;2.94;86.03;99717.81;5057623;28;20582;-65
2023/10/21 03:43:46;;;;;;;0.00;0.00;;;;;;;2.92;86.39;99701.00;5058704;28;20405;-65
2023/10/21 03:46:14;;;;;;;0.10;0.10;;;;;;;2.90;85.76;99712.00;5050566;28;20045;-65
2023/10/21 03:48:41;;;;;;;0.10;0.10;;;;;;;2.81;85.75;99714.19;5012792;28;20144;-65
2023/10/21 03:51:11;;;;;;;0.10;0.10;;;;;;;2.81;85.92;99713.34;5042262;28;20060;-64
2023/10/21 03:53:38;;;;;;;0.10;0.10;;;;;;;2.79;85.96;99718.16;5042434;28;20044;-65
2023/10/21 03:56:04;;;;;;;0.10;0.10;;;;;;;2.83;85.77;99730.19;5049109;28;20419;-65
2023/10/21 03:58:32;;;;;;;0.10;0.10;;;;;;;2.84;85.75;99734.53;5060054;28;20062;-64
2023/10/21 04:00:59;;;;;;;0.10;0.10;;;;;;;2.88;85.53;99730.31;5062479;28;20542;-71
2023/10/21 04:03:25;;;;;;;0.10;0.10;;;;;;;2.88;85.21;99733.03;5043782;28;20127;-71
2023/10/21 04:05:51;;;;;;;0.10;0.10;;;;;;;2.88;85.24;99734.88;5060955;28;20131;-71
2023/10/21 04:08:18;;;;;;;0.10;0.10;;;;;;;2.80;85.16;99742.25;5054239;28;20068;-70
2023/10/21 04:10:44;;;;;;;0.10;0.10;;;;;;;2.75;85.45;99746.69;5059858;28;20074;-71
2023/10/21 04:13:11;;;;;;;0.10;0.10;;;;;;;2.79;85.73;99746.00;5036993;28;20052;-71
2023/10/21 04:15:39;;;;;;;0.00;0.00;;;;;;;2.84;85.64;99745.34;5042898;28;20037;-70
2023/10/21 04:18:06;;;;;;;0.10;0.10;;;;;;;2.88;85.72;99759.19;5026604;28;20053;-70
2023/10/21 04:20:34;;;;;;;0.10;0.10;;;;;;;2.79;85.03;99746.00;5055759;28;20048;-65
2023/10/21 04:23:01;;;;;;;0.10;0.10;;;;;;;2.75;85.35;99752.06;5040322;28;20060;-65
2023/10/21 04:25:28;;;;;;;0.10;0.10;;;;;;;2.77;85.96;99758.91;5064808;28;20462;-71
2023/10/21 04:27:55;;;;;;;0.10;0.10;;;;;;;2.82;86.21;99752.84;5062163;28;20258;-72
2023/10/21 04:30:22;;;;;;;0.10;0.10;;;;;;;2.95;86.60;99768.06;5064314;28;20083;-71
2023/10/21 04:32:50;;;;;;;0.10;0.10;;;;;;;3.02;85.79;99762.59;5062263;28;20060;-71
2023/10/21 04:35:17;;;;;;;0.10;0.10;;;;;;;3.01;84.66;99769.06;5057008;28;20072;-71
2023/10/21 04:37:43;;;;;;;0.00;0.00;;;;;;;2.96;84.34;99770.53;5062824;28;20067;-71
2023/10/21 04:40:11;;;;;;;0.10;0.10;;;;;;;2.93;84.04;99776.38;5065779;28;20079;-71
2023/10/21 04:42:38;;;;;;;0.10;0.10;;;;;;;2.89;84.24;99775.19;5031404;28;20076;-71
2023/10/21 04:45:06;;;;;;;0.10;0.10;;;;;;;2.91;84.46;99778.50;5045327;28;20048;-71
2023/10/21 04:47:32;;;;;;;;;;;;;;;2.95;84.63;99784.28;5050089;28;20111;-71
2023/10/21 04:50:00;;;;;;;0.10;0.10;;;;;;;2.92;83.98;99790.13;5053116;28;20043;-71
2023/10/21 04:52:26;;;;;;;0.10;0.10;;;;;;;2.98;83.88;99790.06;5027991;28;20147;-71
2023/10/21 04:54:52;;;;;;;0.10;0.10;;;;;;;3.06;84.08;99785.41;5058000;28;20358;-72
2023/10/21 04:57:18;;;;;;;0.10;0.10;;;;;;;3.07;83.77;99798.69;5049009;28;20036;-71
2023/10/21 04:59:45;;;;;;;0.10;0.10;;;;;;;3.06;84.04;99798.91;5039203;28;20048;-71
2023/10/21 05:02:11;;;;;;;0.10;0.10;;;;;;;3.12;84.09;99804.22;5027713;28;20457;-72
2023/10/21 05:04:38;;;;;;;0.00;0.00;;;;;;;3.21;84.24;99803.94;5063916;28;20076;-71
2023/10/21 05:07:06;;;;;;;0.10;0.10;;;;;;;3.17;83.64;99800.88;5044593;28;20036;-71
2023/10/21 05:09:32;;;;;;;;;;;;;;;3.23;83.75;99810.75;5065571;28;20323;-73
2023/10/21 05:12:01;;;;;;;0.10;0.10;;;;;;;3.22;83.34;99803.69;5051762;28;20028;-71
2023/10/21 05:14:28;;;;;;;0.10;0.10;;;;;;;3.18;82.54;99817.88;5028000;28;20067;-71
2023/10/21 05:16:55;;;;;;;0.10;0.10;;;;;;;3.17;82.73;99814.38;5047820;28;20763;-71
2023/10/21 05:19:22;;;;;;;0.10;0.10;;;;;;;3.23;82.63;99816.16;5033358;28;20041;-71
2023/10/21 05:21:48;;;;;;;0.10;0.10;;;;;;;3.26;82.72;99820.31;5022720;28;20057;-72
2023/10/21 05:24:15;;;;;;;0.10;0.10;;;;;;;3.27;81.91;99827.34;5026137;28;20037;-71
2023/10/21 05:26:42;;;;;;;0.00;0.00;;;;;;;3.22;81.89;99825.31;5058895;28;20051;-71
2023/10/21 05:29:08;;;;;;;0.00;0.00;;;;;;;3.24;82.13;99831.31;5058046;28;20511;-72
2023/10/21 05:31:35;;;;;;;0.10;0.10;;;;;;;3.30;81.40;99837.72;5043616;28;20048;-71
2023/10/21 05:34:01;;;;;;;0.10;0.10;;;;;;;3.25;81.44;99834.88;5032320;28;20053;-71
2023/10/21 05:36:27;;;;;;;0.10;0.10;;;;;;;3.21;81.16;99834.47;5053867;28;20131;-71
2023/10/21 05:38:53;;;;;;;0.03;0.03;;;;;;;3.23;81.34;99845.88;5059519;28;20510;-71
2023/10/21 05:41:22;;;;;;;0.10;0.10;;;;;;;3.26;80.88;99845.44;5054135;28;20037;-71
2023/10/21 05:43:48;;;;;;;0.10;0.10;;;;;;;3.24;80.86;99838.63;5049109;28;20136;-71
2023/10/21 05:46:14;;;;;;;0.10;0.10;;;;;;;3.29;81.21;99851.47;5040496;28;20048;-71
2023/10/21 05:48:40;;;;;;;0.10;0.10;;;;;;;3.35;80.88;99858.66;5066151;28;20041;-71
2023/10/21 05:51:07;;;;;;;0.10;0.10;;;;;;;3.30;80.71;99862.03;5037485;28;20060;-71
2023/10/21 05:53:33;;;;;;;0.10;0.10;;;;;;;3.31;81.04;99868.28;5059677;28;20396;-65
2023/10/21 05:56:00;;;;;;;0.10;0.10;;;;;;;3.27;81.06;99865.19;5027029;28;20400;-65
2023/10/21 05:58:28;;;;;;;0.10;0.10;;;;;;;3.15;80.83;99872.38;5022205;28;20052;-65
2023/10/21 06:00:54;;;;;;;0.10;0.10;;;;;;;3.10;81.02;99876.59;5059939;28;20055;-65
2023/10/21 06:03:20;;;;;;;0.10;0.10;;;;;;;3.17;81.03;99870.28;5029830;28;20044;-66
2023/10/21 06:05:47;;;;;;;0.10;0.10;;;;;;;3.15;80.75;99883.19;5049151;28;20090;-66
2023/10/21 06:08:13;;;;;;;0.10;0.10;;;;;;;2.98;81.26;99856.75;5027617;28;20064;-65
2023/10/21 06:10:42;;;;;;;0.10;0.10;;;;;;;3.05;81.05;99878.31;5021645;28;20045;-65
2023/10/21 06:13:08;;;;;;;0.00;0.00;;;;;;;3.05;81.36;99881.00;5016234;28;20052;-65
2023/10/21 06:15:37;;;;;;;0.10;0.10;;;;;;;3.00;80.92;99892.47;5051772;28;20350;-65
2023/10/21 06:18:04;;;;;;;0.10;0.10;;;;;;;2.95;81.07;99900.44;5051937;28;20044;-65
2023/10/21 06:20:31;;;;;;;0.10;0.10;;;;;;;2.96;81.17;99907.47;5063472;28;20468;-65
2023/10/21 06:22:58;;;;;;;0.10;0.10;;;;;;;2.95;81.75;99911.25;5056392;28;20673;-65
2023/10/21 06:25:24;;;;;;;0.10;0.10;;;;;;;3.00;81.48;99914.09;5064951;28;20044;-65
2023/10/21 06:27:51;;;;;;;0.10;0.10;;;;;;;2.99;81.65;99917.84;5028931;28;20052;-65
2023/10/21 06:30:17;;;;;;;0.10;0.10;;;;;;;3.07;81.75;99916.72;5065124;28;20063;-72
2023/10/21 06:32:45;;;;;;;0.15;0.10;;;;;;;3.13;81.81;99918.56;5024762;28;20076;-72
2023/10/21 06:35:11;;;;;;;;;;;;;;;3.22;80.96;99911.00;5051228;28;20600;-71
2023/10/21 06:37:37;;;;;;;0.10;0.10;;;;;;;3.23;79.82;99918.84;5060747;28;19982;-65
2023/10/21 06:40:05;;;;;;;0.10;0.10;;;;;;;3.21;80.01;99915.56;5060775;28;20044;-71
2023/10/21 06:42:32;;;;;;;0.13;0.13;;;;;;;3.20;80.21;99913.91;5066250;28;20150;-71
2023/10/21 06:44:59;;;;;;;0.10;0.10;;;;;;;3.20;80.20;99910.38;5059258;28;20055;-65
2023/10/21 06:47:25;;;;;;;0.10;0.10;;;;;;;3.22;80.21;99909.09;5054620;28;20055;-71
2023/10/21 06:49:53;;;;;;;0.10;0.10;;;;;;;3.18;80.91;99905.19;5059843;28;20052;-71
2023/10/21 06:52:20;;;;;;;0.10;0.10;;;;;;;3.18;80.54;99912.47;5039511;28;20044;-71
2023/10/21 06:54:46;;;;;;;0.10;0.10;;;;;;;3.16;81.15;99920.81;5030080;28;20040;-66
2023/10/21 06:57:19;;;;;;;0.10;0.10;;;;;;;3.26;81.44;99923.00;5031347;28;20070;-71
2023/10/21 06:59:46;;;;;;;0.10;0.10;;;;;;;3.29;81.29;99929.84;5024663;28;20495;-66
2023/10/21 07:02:12;;;;;;;0.10;0.10;;;;;;;3.31;81.35;99927.75;5047785;28;20051;-65
2023/10/21 07:04:38;;;;;;;0.10;0.10;;;;;;;3.28;80.17;99936.28;5037761;28;20356;-72
2023/10/21 07:07:06;;;;;;;0.10;0.10;;;;;;;3.24;79.50;99936.72;5042618;28;20044;-71
2023/10/21 07:09:32;;;;;;;;;;;;;;;3.27;79.45;99935.47;5036969;28;20098;-72
2023/10/21 07:11:58;;;;;;;0.10;0.10;;;;;;;3.30;78.84;99937.72;5059117;28;19924;-65
2023/10/21 07:14:24;;;;;;;0.10;0.10;;;;;;;3.29;78.72;99946.06;5062197;28;20048;-65
2023/10/21 07:16:50;;;;;;;0.10;0.10;;;;;;;3.23;79.00;99951.28;5056153;28;20063;-65
2023/10/21 07:19:17;;;;;;;0.10;0.10;;;;;;;3.31;79.68;99954.78;5056135;28;20056;-66
2023/10/21 07:21:43;;;;;;;0.10;0.10;;;;;;;3.36;79.98;99952.22;5059211;28;20049;-71
2023/10/21 07:24:12;;;;;;;0.10;0.10;;;;;;;3.36;80.10;99965.72;5061767;28;20111;-71
2023/10/21 07:26:38;;;;;;;0.10;0.10;;;;;;;3.24;79.31;99965.63;5060487;28;20041;-71
2023/10/21 07:29:07;;;;;;;0.10;0.10;;;;;;;3.23;80.19;99958.59;5061408;28;20080;-71
2023/10/21 07:31:36;;;;;;;0.10;0.10;;;;;;;3.33;80.07;99967.00;5058599;28;20184;-72
2023/10/21 07:34:02;;;;;;;0.10;0.10;;;;;;;3.39;79.58;99957.16;5058194;28;20053;-73
2023/10/21 07:36:29;;;;;;;0.10;0.10;;;;;;;3.55;79.04;99980.09;5025065;28;20048;-71
2023/10/21 07:38:56;;;;;;;0.10;0.10;;;;;;;3.61;77.97;99971.09;5031385;28;20533;-72
2023/10/21 07:41:24;;;;;;;;;;;;;;;3.67;77.68;99982.88;5029670;28;20053;-71
2023/10/21 07:43:50;;;;;;;0.00;0.00;;;;;;;3.59;76.96;99980.47;5043203;28;19943;-72
2023/10/21 07:46:16;;;;;;;0.10;0.10;;;;;;;3.52;77.09;99999.50;5008782;28;20131;-72
2023/10/21 07:48:43;;;;;;;0.10;0.10;;;;;;;3.46;77.51;99989.53;5024841;28;20136;-71
2023/10/21 07:51:09;;;;;;;0.10;0.10;;;;;;;3.56;77.39;99997.97;5054681;28;20147;-71
2023/10/21 07:53:35;;;;;;;0.10;0.10;;;;;;;3.66;77.28;99992.06;5058521;28;20052;-71
2023/10/21 07:56:02;;;;;;;0.10;0.10;;;;;;;3.70;77.23;100001.38;5062661;28;20064;-71
2023/10/21 07:58:30;;;;;;;0.10;0.10;;;;;;;3.68;76.76;100004.31;5063554;28;20135;-72
2023/10/21 08:00:56;;;;;;;0.10;0.10;;;;;;;3.67;77.08;100002.66;5047845;28;20291;-71
2023/10/21 08:03:22;;;;;;;0.10;0.10;;;;;;;3.66;77.12;99997.47;5057225;28;20044;-71
2023/10/21 08:05:49;;;;;;;0.08;0.08;;;;;;;3.82;77.53;100007.69;5045089;28;20155;-71
2023/10/21 08:08:15;;;;;;;0.10;0.10;;;;;;;3.94;77.34;100015.06;5044198;28;20076;-71
2023/10/21 08:10:41;;;;;;;0.10;0.10;;;;;;;3.96;77.03;100010.25;5041086;28;20048;-71
2023/10/21 08:13:07;;;;;;;0.10;0.10;;;;;;;4.02;76.42;100014.75;5063561;28;21103;-71
2023/10/21 08:15:35;;;;;;;0.10;0.10;;;;;;;4.03;75.82;100016.41;5065690;28;20048;-71
2023/10/21 08:18:02;;;;;;;;;;;;;;;4.16;74.96;100014.59;4885901;22;10002055;-71
2023/10/21 08:20:28;;;;;;;0.10;0.10;;;;;;;4.20;74.99;100019.34;5033189;28;20400;-71
2023/10/21 08:22:54;;;;;;;0.10;0.10;;;;;;;4.22;74.81;100024.53;5036865;28;20049;-71
2023/10/21 08:25:21;;;;;;;0.10;0.10;;;;;;;4.33;74.87;100023.75;5042710;28;20391;-71
2023/10/21 08:27:47;;;;;;;0.10;0.10;;;;;;;4.41;74.59;100025.31;5040040;28;20127;-71
2023/10/21 08:30:14;;;;;;;0.10;0.10;;;;;;;4.37;74.03;100014.13;5039820;28;20049;-71
2023/10/21 08:32:44;;;;;;;0.10;0.10;;;;;;;4.45;73.41;100022.97;5041695;28;20158;-71
2023/10/21 08:35:10;;;;;;;0.10;0.10;;;;;;;4.58;73.28;100021.97;5042439;28;20073;-71
2023/10/21 08:37:37;;;;;;;0.10;0.10;;;;;;;4.68;72.62;100019.53;5043153;28;20060;-71
2023/10/21 08:40:07;;;;;;;0.10;0.10;;;;;;;4.91;72.46;100034.19;5038256;28;20497;-71
2023/10/21 08:42:34;;;;;;;0.10;0.10;;;;;;;5.13;71.47;100022.84;5042570;28;20092;-72
2023/10/21 08:45:06;;;;;;;0.10;0.10;;;;;;;5.17;70.50;100026.72;5045642;28;20044;-67
2023/10/21 08:47:35;;;;;;;0.10;0.10;;;;;;;5.14;70.61;100029.91;5040262;28;20419;-67
2023/10/21 08:50:03;;;;;;;0.10;0.10;;;;;;;5.10;71.19;100035.81;5041185;28;20049;-67
2023/10/21 08:52:34;;;;;;;0.10;0.10;;;;;;;5.10;70.28;100032.25;5041108;28;20056;-66
2023/10/21 08:55:05;;;;;;;0.10;0.10;;;;;;;5.17;70.08;100032.16;5042650;28;20049;-67
2023/10/21 08:57:36;;;;;;;0.10;0.10;;;;;;;5.22;69.77;100024.97;5027873;28;20068;-71
2023/10/21 09:00:05;;;;;;;0.10;0.10;;;;;;;5.30;68.72;100034.66;5042583;28;20048;-72
2023/10/21 09:02:32;;;;;;;0.10;0.10;;;;;;;5.28;68.93;100019.66;5044447;28;20444;-67
2023/10/21 09:04:59;;;;;;;0.10;0.10;;;;;;;5.39;68.77;100027.81;5045953;28;20064;-67
2023/10/21 09:07:47;;;;;;;0.10;0.10;;;;;;;5.45;69.32;100031.47;5047549;28;20550;-66
2023/10/21 09:10:14;;;;;;;0.10;0.10;;;;;;;5.61;69.38;100035.38;5045646;28;20057;-66
2023/10/21 09:12:41;;;;;;;0.10;0.10;;;;;;;5.61;68.02;100039.97;5043389;28;20458;-67
2023/10/21 09:15:09;;;;;;;0.10;0.10;;;;;;;5.45;68.51;100047.72;5033518;28;20488;-66
2023/10/21 09:17:38;;;;;;;0.10;0.10;;;;;;;5.26;68.96;100047.03;5025176;28;20144;-67
2023/10/21 09:20:09;;;;;;;0.10;0.10;;;;;;;5.25;69.45;100038.06;5025598;28;20132;-66
2023/10/21 09:22:38;;;;;;;0.10;0.10;;;;;;;5.23;69.05;100055.63;5037538;28;20132;-67
2023/10/21 09:25:15;;;;;;;0.10;0.10;;;;;;;5.21;68.83;100058.56;5043470;28;20044;-71
2023/10/21 09:27:42;;;;;;;0.10;0.10;;;;;;;5.15;68.25;100054.09;5042678;28;20064;-72
2023/10/21 09:30:14;;;;;;;0.13;0.13;;;;;;;5.14;68.79;100060.53;5044868;28;20064;-72
2023/10/21 09:32:41;;;;;;;0.10;0.10;;;;;;;5.10;68.54;100045.81;5042378;28;20423;-72
2023/10/21 09:35:21;;;;;;;0.00;0.00;;;;;;;5.17;68.41;100073.66;5043402;28;20056;-71
2023/10/21 09:37:49;;;;;;;0.10;0.10;;;;;;;5.17;68.39;100075.53;5044569;28;20059;-71
2023/10/21 09:40:15;;;;;;;;;;;;;;;5.07;68.30;100078.81;5024522;28;20098;-72
2023/10/21 09:42:41;;;;;;;0.10;0.10;;;;;;;5.00;68.70;100080.78;5024679;28;19929;-72
2023/10/21 09:45:09;;;;;;;0.10;0.10;;;;;;;4.96;68.86;100075.00;5032601;28;20095;-72
2023/10/21 09:47:39;;;;;;;0.10;0.10;;;;;;;4.98;69.13;100072.88;4995035;28;20069;-72
2023/10/21 09:50:10;;;;;;;0.10;0.10;;;;;;;5.05;69.06;100075.50;5025299;28;20049;-72
2023/10/21 09:52:44;;;;;;;0.10;0.10;;;;;;;5.21;68.98;100072.13;5032683;28;20052;-71
2023/10/21 09:55:13;;;;;;;0.10;0.10;;;;;;;5.45;68.88;100074.03;5042107;28;20056;-71
2023/10/21 09:57:44;;;;;;;0.10;0.10;;;;;;;5.46;68.26;100070.28;5042993;28;20546;-71
2023/10/21 10:00:11;;;;;;;0.10;0.10;;;;;;;5.35;67.71;100075.44;5042345;28;20048;-72
2023/10/21 10:02:40;;;;;;;0.10;0.10;;;;;;;5.31;68.85;100078.88;5024213;28;20063;-66
2023/10/21 10:05:07;;;;;;;0.10;0.10;;;;;;;5.34;68.31;100075.69;5035605;28;20519;-66
2023/10/21 10:07:36;;;;;;;0.10;0.10;;;;;;;5.29;68.45;100087.22;5038511;28;20044;-71
2023/10/21 10:10:04;;;;;;;0.10;0.10;;;;;;;5.21;68.76;100085.69;5040982;28;20135;-71
2023/10/21 10:12:36;;;;;;;0.10;0.10;;;;;;;5.20;68.98;100085.91;5039396;28;20148;-72
2023/10/21 10:15:37;;;;;;;0.10;0.10;;;;;;;5.08;68.73;100092.13;5040573;28;20068;-72
2023/10/21 10:18:05;;;;;;;0.10;0.10;;;;;;;5.05;69.06;100097.19;5024517;28;20060;-72
2023/10/21 10:20:32;;;;;;;0.10;0.10;;;;;;;5.04;68.99;100093.63;5037686;28;20041;-67
2023/10/21 10:23:00;;;;;;;0.10;0.10;;;;;;;4.97;68.68;100091.00;5043841;28;20503;-66
2023/10/21 10:25:31;;;;;;;0.10;0.10;;;;;;;4.78;69.10;100086.72;5043746;28;20083;-67
2023/10/21 10:28:00;;;;;;;0.10;0.10;;;;;;;4.69;69.45;100102.44;5043596;28;20495;-67
2023/10/21 10:30:31;;;;;;;0.10;0.10;;;;;;;4.60;69.60;100104.66;5041904;28;20091;-66
2023/10/21 10:33:06;;;;;;;0.10;0.10;;;;;;;4.59;69.95;100104.88;5042731;28;20061;-66
2023/10/21 10:35:34;;;;;;;0.10;0.10;;;;;;;4.45;70.57;100099.63;5042523;28;20426;-67
2023/10/21 10:38:00;;;;;;;;;;;;;;;4.42;71.33;100096.53;5043353;28;20147;-67
2023/10/21 10:40:33;;;;;;;0.10;0.10;;;;;;;4.47;70.30;100100.22;5036249;28;20027;-66
2023/10/21 10:43:03;;;;;;;0.10;0.10;;;;;;;4.63;69.70;100104.19;5043410;28;20052;-67
2023/10/21 10:45:32;;;;;;;0.10;0.10;;;;;;;4.90;69.18;100108.44;5044831;28;20063;-66
2023/10/21 10:48:00;;;;;;;0.10;0.10;;;;;;;5.08;68.10;100110.25;5043916;28;20508;-67
2023/10/21 10:50:28;;;;;;;0.10;0.10;;;;;;;5.13;67.80;100110.38;5045401;28;20130;-67
2023/10/21 10:52:55;;;;;;;0.10;0.10;;;;;;;5.03;67.69;100110.94;5043598;28;20569;-67
2023/10/21 10:55:21;;;;;;;0.10;0.10;;;;;;;4.94;67.69;100112.34;5042961;28;20049;-67
2023/10/21 10:57:48;;;;;;;0.10;0.10;;;;;;;4.86;68.30;100113.50;4680835;28;10000441;-67
2023/10/21 11:00:22;;;;;;;0.10;0.10;;;;;;;4.79;68.79;100116.28;5029722;28;20041;-67
2023/10/21 11:02:49;;;;;;;0.10;0.10;;;;;;;4.76;68.73;100108.63;5014289;28;20709;-66
2023/10/21 11:05:19;;;;;;;0.10;0.10;;;;;;;4.77;69.24;100113.00;5036566;28;20052;-67
2023/10/21 11:07:47;;;;;;;0.10;0.10;;;;;;;4.92;68.72;100123.41;5036691;28;20876;-67
2023/10/21 11:10:18;;;;;;;0.20;0.20;;;;;;;5.30;68.06;100132.25;5036754;28;20045;-67
2023/10/21 11:12:47;;;;;;;0.10;0.10;;;;;;;5.58;66.42;100129.94;5030866;28;20054;-66
2023/10/21 11:15:13;;;;;;;0.10;0.10;;;;;;;5.74;66.08;100134.69;5042552;28;20060;-67
2023/10/21 11:17:42;;;;;;;0.10;0.10;;;;;;;5.86;65.77;100144.75;5036889;28;20068;-67
2023/10/21 11:20:09;;;;;;;0.10;0.10;;;;;;;5.84;65.64;100142.25;5041614;28;20045;-67
2023/10/21 11:22:35;;;;;;;0.10;0.10;;;;;;;5.79;65.37;100139.41;5041681;28;20045;-66
2023/10/21 11:25:03;;;;;;;0.10;0.10;;;;;;;5.65;64.81;100127.97;5041923;28;20041;-68
2023/10/21 11:27:31;;;;;;;0.10;0.10;;;;;;;5.49;64.71;100143.03;5041438;28;20052;-67
2023/10/21 11:29:59;;;;;;;0.10;0.10;;;;;;;5.20;64.81;100145.53;5030824;28;20527;-67
2023/10/21 11:32:27;;;;;;;0.10;0.10;;;;;;;4.93;65.21;100145.94;5029387;28;20056;-67
2023/10/21 11:34:55;;;;;;;0.10;0.10;;;;;;;4.87;66.34;100154.94;5040025;28;20050;-66
2023/10/21 11:37:21;;;;;;;0.10;0.10;;;;;;;4.80;67.19;100158.59;5027030;28;20755;-67
2023/10/21 11:39:48;;;;;;;0.10;0.10;;;;;;;4.80;66.82;100165.88;5036503;28;20041;-66
2023/10/21 11:42:19;;;;;;;0.10;0.10;;;;;;;4.71;66.61;100175.38;5035532;28;20152;-67